Time;durP1;ratioP1;P1;durP2;ratioP2;P2;SDS_P1;SDS_P2;PMS_P1;PMS_P2;Temp;Humidity;BMP_temperature;BMP_pressure;BME280_temperature;BME280_humidity;BME280_pressure;Samples;Min_cycle;Max_cycle;Signal;HPM_P1;HPM_P2
2022/03/01 04:57:46;;;;;;;7.78;4.82;;;;;;;4.13;45.60;102015.38;5606354;31;78533;-54
2022/03/01 05:00:48;;;;;;;7.30;4.55;;;;;;;4.13;45.60;102015.38;5585497;31;34070;-54
2022/03/01 05:03:51;;;;;;;8.27;4.87;;;;;;;3.74;45.81;102014.16;5603122;31;33672;-54
2022/03/01 05:06:54;;;;;;;6.62;4.03;;;;;;;3.89;45.58;102014.03;5602084;31;33528;-54
2022/03/01 05:09:56;;;;;;;7.97;4.50;;;;;;;3.84;45.64;102005.00;5602932;31;33616;-54
2022/03/01 05:13:01;;;;;;;8.85;5.03;;;;;;;3.88;45.72;102006.28;5603564;31;33698;-54
2022/03/01 05:16:03;;;;;;;7.68;4.35;;;;;;;3.73;46.05;102006.37;5589367;31;33544;-54
2022/03/01 05:19:07;;;;;;;7.18;4.47;;;;;;;3.81;45.45;102008.03;5583661;31;33766;-54
2022/03/01 05:22:09;;;;;;;5.50;4.30;;;;;;;3.96;45.27;102003.44;5583639;32;34805;-54
2022/03/01 05:25:15;;;;;;;7.85;4.35;;;;;;;3.85;45.82;102011.97;5597611;31;33606;-54
2022/03/01 05:28:17;;;;;;;8.80;4.70;;;;;;;4.06;45.03;102014.53;5602858;31;33653;-54
2022/03/01 05:31:19;;;;;;;7.97;4.80;;;;;;;4.22;44.57;102011.53;5603245;31;33660;-54
2022/03/01 05:34:22;;;;;;;9.15;4.62;;;;;;;4.21;44.40;102007.25;5594460;31;33554;-54
2022/03/01 05:37:24;;;;;;;8.07;4.50;;;;;;;3.87;45.25;102010.75;5584275;31;33695;-54
2022/03/01 05:40:31;;;;;;;9.02;4.60;;;;;;;3.91;45.20;102012.00;5583586;31;33705;-54
2022/03/01 05:43:33;;;;;;;6.68;4.43;;;;;;;3.92;45.44;102011.00;5602439;31;34396;-54
2022/03/01 05:46:35;;;;;;;6.82;4.15;;;;;;;3.73;45.64;102006.37;5602951;31;33565;-54
2022/03/01 05:49:38;;;;;;;6.75;4.25;;;;;;;3.74;45.40;101997.41;5601826;31;33833;-54
2022/03/01 05:52:41;;;;;;;7.90;4.80;;;;;;;3.93;45.35;102003.84;5592993;31;33675;-54
2022/03/01 05:55:43;;;;;;;7.45;4.47;;;;;;;4.08;44.63;102004.53;5602169;31;34380;-54
2022/03/01 05:58:45;;;;;;;10.07;5.10;;;;;;;4.00;45.00;102012.66;5596073;31;34871;-55
2022/03/01 06:01:48;;;;;;;6.30;4.25;;;;;;;3.86;44.77;102013.59;5598965;31;33530;-55
2022/03/01 06:04:52;;;;;;;7.78;4.47;;;;;;;3.90;45.30;102014.84;5585699;31;33674;-54
2022/03/01 06:07:55;;;;;;;8.65;4.35;;;;;;;3.77;45.32;102015.56;5570196;31;33381;-54
2022/03/01 06:10:58;;;;;;;7.03;4.62;;;;;;;3.96;45.16;102030.00;5567238;31;34320;-54
2022/03/01 06:14:00;;;;;;;6.57;4.30;;;;;;;4.20;44.70;102018.88;5567761;32;33744;-54
2022/03/01 06:17:03;;;;;;;10.02;4.90;;;;;;;3.97;44.57;102021.84;5568506;31;34271;-54
2022/03/01 06:20:07;;;;;;;7.45;4.78;;;;;;;4.00;44.81;102025.91;5567080;32;33263;-54
2022/03/01 06:23:09;;;;;;;6.55;4.10;;;;;;;4.02;44.78;102026.56;5550088;32;34331;-54
2022/03/01 06:26:12;;;;;;;7.75;4.72;;;;;;;4.15;44.45;102020.50;5550187;32;33815;-54
2022/03/01 06:29:15;;;;;;;11.23;5.10;;;;;;;4.28;44.11;102025.06;5563821;31;34321;-54
2022/03/01 06:32:17;;;;;;;9.07;4.78;;;;;;;3.81;45.23;102021.31;5568898;32;33764;-54
2022/03/01 06:35:20;;;;;;;6.70;4.22;;;;;;;3.92;44.62;102018.12;5568529;32;34024;-54
2022/03/01 06:38:27;;;;;;;;;;;;;;;3.99;44.73;102009.19;5561129;32;33715;-54
2022/03/01 06:41:30;;;;;;;7.03;4.90;;;;;;;4.07;44.55;102016.16;5568368;32;33949;-55
2022/03/01 06:44:32;;;;;;;10.05;5.57;;;;;;;4.23;45.16;102013.16;5552224;32;33772;-54
2022/03/01 06:47:35;;;;;;;11.52;4.90;;;;;;;4.35;43.78;102016.09;5552219;32;33647;-54
2022/03/01 06:50:38;;;;;;;8.50;5.22;;;;;;;4.27;43.46;102016.25;5568792;32;33605;-54
2022/03/01 06:53:40;;;;;;;9.55;6.47;;;;;;;4.50;43.58;102017.75;5566936;32;33706;-54
2022/03/01 06:56:43;;;;;;;9.90;5.65;;;;;;;4.40;43.91;102020.78;5568035;32;33795;-54
2022/03/01 06:59:45;;;;;;;7.65;4.53;;;;;;;4.33;44.12;102017.28;5567321;32;33694;-54
2022/03/01 07:02:48;;;;;;;8.07;5.47;;;;;;;4.36;43.61;102008.94;5562191;32;33994;-55
2022/03/01 07:05:50;;;;;;;9.30;4.53;;;;;;;4.32;43.93;102010.34;5548042;32;33693;-54
2022/03/01 07:08:52;;;;;;;9.32;4.95;;;;;;;4.36;43.74;102008.94;5548019;32;34351;-54
2022/03/01 07:11:56;;;;;;;8.90;4.75;;;;;;;4.27;44.16;102005.63;5557496;32;33589;-55
2022/03/01 07:14:58;;;;;;;7.80;4.12;;;;;;;4.34;43.79;102000.34;5558284;32;33669;-54
2022/03/01 07:18:01;;;;;;;11.73;4.12;;;;;;;4.28;44.05;101995.84;5568206;32;33213;-54
2022/03/01 07:21:03;;;;;;;8.63;4.10;;;;;;;4.35;43.51;101992.19;5567955;32;33927;-54
2022/03/01 07:24:06;;;;;;;12.15;5.05;;;;;;;4.51;43.37;101996.34;5565139;32;33615;-54
2022/03/01 07:27:10;;;;;;;11.10;4.57;;;;;;;4.75;42.85;102002.91;5567791;32;33766;-55
2022/03/01 07:30:14;;;;;;;9.23;3.90;;;;;;;4.98;42.05;101991.91;5554932;32;33694;-54
2022/03/01 07:33:16;;;;;;;6.37;3.92;;;;;;;4.86;42.11;101994.34;5549568;32;33340;-54
2022/03/01 07:36:18;;;;;;;7.75;4.05;;;;;;;4.99;42.21;101988.22;5556906;32;34364;-54
2022/03/01 07:39:20;;;;;;;7.75;4.15;;;;;;;5.09;41.70;101980.66;5562890;32;33220;-54
2022/03/01 07:42:23;;;;;;;7.90;3.85;;;;;;;5.16;41.16;101981.47;5560476;32;34116;-54
2022/03/01 07:45:25;;;;;;;8.82;4.20;;;;;;;5.02;41.30;101993.13;5566311;32;33674;-55
2022/03/01 07:48:28;;;;;;;8.52;4.72;;;;;;;5.07;41.18;101990.69;5567708;32;34283;-54
2022/03/01 07:51:30;;;;;;;6.75;4.90;;;;;;;5.36;40.93;101996.63;5567704;32;34477;-54
2022/03/01 07:54:32;;;;;;;7.75;4.37;;;;;;;5.30;40.04;101990.28;5558683;32;33822;-55
2022/03/01 07:57:34;;;;;;;6.82;4.05;;;;;;;5.21;41.07;101991.53;5548832;32;33679;-54
2022/03/01 08:00:37;;;;;;;11.02;4.25;;;;;;;5.39;40.40;101990.88;5562406;32;33545;-54
2022/03/01 08:03:39;;;;;;;7.45;4.10;;;;;;;5.53;40.43;101991.69;5568131;32;33586;-54
2022/03/01 08:06:42;;;;;;;7.90;4.05;;;;;;;5.54;40.17;101986.16;5568052;32;34324;-54
2022/03/01 08:09:45;;;;;;;6.47;3.95;;;;;;;5.44;39.47;101995.59;5552666;32;35694;-54
2022/03/01 08:12:47;;;;;;;7.05;3.87;;;;;;;5.46;39.25;101989.03;5563762;32;34461;-54
2022/03/01 08:15:51;;;;;;;6.22;3.53;;;;;;;5.60;39.36;101997.84;5567441;32;34052;-54
2022/03/01 08:18:53;;;;;;;7.72;3.67;;;;;;;5.54;39.41;101999.47;5566059;32;33671;-54
2022/03/01 08:21:55;;;;;;;5.03;3.80;;;;;;;5.72;39.43;101985.50;5568019;32;34456;-54
2022/03/01 08:24:58;;;;;;;5.07;3.45;;;;;;;5.85;38.20;102000.63;5554848;32;33619;-54
2022/03/01 08:28:01;;;;;;;6.85;3.62;;;;;;;5.54;38.46;101988.03;5556576;32;33774;-54
2022/03/01 08:31:03;;;;;;;6.95;3.90;;;;;;;5.77;38.84;101995.56;5567463;32;34275;-54
2022/03/01 08:34:06;;;;;;;8.57;3.65;;;;;;;5.82;37.95;101993.06;5568161;32;33729;-54
2022/03/01 08:37:08;;;;;;;7.85;3.78;;;;;;;5.77;38.06;101992.87;5551690;32;33665;-54
2022/03/01 08:40:13;;;;;;;9.27;3.47;;;;;;;5.91;38.68;102004.31;5563291;32;33180;-54
2022/03/01 08:43:15;;;;;;;6.32;3.65;;;;;;;6.02;37.37;101993.84;5567720;32;34450;-54
2022/03/01 08:46:18;;;;;;;5.80;3.03;;;;;;;5.94;37.23;101986.09;5557033;32;34363;-54
2022/03/01 08:49:21;;;;;;;6.60;3.72;;;;;;;5.96;37.48;101984.06;5554201;32;34167;-54
2022/03/01 08:52:26;;;;;;;5.80;3.17;;;;;;;6.23;36.73;101971.47;5561895;32;33708;-54
2022/03/01 08:55:28;;;;;;;9.88;5.22;;;;;;;6.33;36.28;101976.34;5566694;32;33728;-54
2022/03/01 08:58:31;;;;;;;6.93;3.47;;;;;;;6.43;37.07;101970.53;5567308;32;33681;-55
2022/03/01 09:01:33;;;;;;;5.97;3.47;;;;;;;6.29;36.52;101975.94;5566406;32;33577;-54
2022/03/01 09:04:36;;;;;;;6.35;3.17;;;;;;;6.55;35.19;101974.16;5562734;32;33539;-54
2022/03/01 09:07:38;;;;;;;5.22;3.10;;;;;;;6.72;34.95;101969.13;5560093;32;33667;-54
2022/03/01 09:10:41;;;;;;;5.25;3.05;;;;;;;6.88;34.55;101967.78;5557064;32;33347;-54
2022/03/01 09:13:46;;;;;;;4.53;2.53;;;;;;;6.63;34.47;101965.91;5548388;32;33609;-54
2022/03/01 09:16:48;;;;;;;5.37;3.05;;;;;;;6.64;34.39;101958.72;5559140;32;33656;-54
2022/03/01 09:19:50;;;;;;;5.15;3.08;;;;;;;6.78;34.06;101961.06;5563427;32;34332;-54
2022/03/01 09:22:56;;;;;;;6.62;3.00;;;;;;;6.77;33.62;101951.47;5567449;32;33759;-54
2022/03/01 09:25:58;;;;;;;6.32;3.37;;;;;;;6.93;33.77;101955.44;5555582;32;34315;-55
2022/03/01 09:29:01;;;;;;;7.35;3.75;;;;;;;6.76;34.11;101957.84;5552979;32;33914;-54
2022/03/01 09:32:05;;;;;;;4.57;2.53;;;;;;;6.71;34.52;101947.00;5567160;32;34214;-54
2022/03/01 09:35:08;;;;;;;6.10;2.67;;;;;;;6.58;33.99;101944.41;5567262;32;33619;-54
2022/03/01 09:38:12;;;;;;;4.85;2.65;;;;;;;6.74;33.39;101938.56;5567401;32;33573;-54
2022/03/01 09:41:18;;;;;;;5.03;2.45;;;;;;;6.61;33.55;101932.50;5557189;32;33766;-54
2022/03/01 09:44:21;;;;;;;4.30;2.55;;;;;;;6.56;33.67;101927.84;5563849;32;33680;-54
2022/03/01 09:47:24;;;;;;;6.85;2.97;;;;;;;6.81;33.16;101925.19;5569331;32;33648;-54
2022/03/01 09:50:30;;;;;;;13.75;2.80;;;;;;;6.72;33.10;101921.16;5567806;32;34246;-54
2022/03/01 09:53:34;;;;;;;5.28;2.92;;;;;;;6.67;33.46;101915.66;5559997;32;33160;-54
2022/03/01 09:56:36;;;;;;;6.07;2.55;;;;;;;6.91;31.78;101912.19;5568031;32;33744;-54
2022/03/01 09:59:39;;;;;;;5.37;2.92;;;;;;;7.02;32.77;101892.00;5562888;32;33636;-54
2022/03/01 10:02:43;;;;;;;5.75;2.70;;;;;;;6.99;31.98;101900.44;5569697;32;34216;-54
2022/03/01 10:05:46;;;;;;;5.47;3.08;;;;;;;6.81;31.75;101901.19;5569139;32;34408;-54
2022/03/01 10:08:55;;;;;;;4.53;2.85;;;;;;;7.11;31.72;101901.34;5568789;32;34433;-54
2022/03/01 10:12:03;;;;;;;6.15;2.80;;;;;;;7.19;32.76;101894.94;5568398;32;33825;-54
2022/03/01 10:15:10;;;;;;;4.57;2.62;;;;;;;7.24;30.45;101887.06;5569241;32;33681;-55
2022/03/01 10:18:15;;;;;;;5.30;2.80;;;;;;;7.30;30.01;101887.00;5557599;32;33676;-54
2022/03/01 10:21:19;;;;;;;5.85;2.92;;;;;;;7.30;31.35;101876.31;5566715;32;34380;-54
2022/03/01 10:24:24;;;;;;;5.28;2.72;;;;;;;7.48;31.00;101869.34;5566751;32;33828;-54
2022/03/01 10:27:28;;;;;;;8.25;2.45;;;;;;;7.54;30.32;101861.28;5566911;32;34521;-54
2022/03/01 10:30:33;;;;;;;4.95;3.03;;;;;;;7.52;30.69;101865.22;5568625;32;33638;-54
2022/03/01 10:33:35;;;;;;;7.12;3.55;;;;;;;6.69;31.57;101863.78;5563720;32;33738;-54
2022/03/01 10:36:44;;;;;;;7.03;3.08;;;;;;;6.59;32.50;101860.78;5568732;32;33201;-54
2022/03/01 10:39:46;;;;;;;5.07;3.25;;;;;;;7.03;31.93;101858.97;5561433;32;33770;-55
2022/03/01 10:43:11;;;;;;;5.03;3.10;;;;;;;7.26;30.80;101847.66;5556654;32;33284;-54
2022/03/01 10:46:16;;;;;;;4.80;2.70;;;;;;;7.46;30.28;101839.44;5556822;32;33741;-54
2022/03/01 10:49:21;;;;;;;;;;;;;;;7.45;29.72;101841.28;5554626;32;33783;-54
2022/03/01 10:52:31;;;;;;;5.20;2.70;;;;;;;7.39;29.83;101823.50;5568646;32;34505;-54
2022/03/01 10:55:35;;;;;;;5.95;3.80;;;;;;;7.41;29.76;101813.41;5559112;32;33670;-55
2022/03/01 10:58:46;;;;;;;4.55;2.90;;;;;;;7.63;29.82;101813.75;5566369;32;33693;-55
2022/03/01 11:01:48;;;;;;;3.70;2.45;;;;;;;7.44;29.82;101809.47;5552048;32;33697;-54
2022/03/01 11:04:51;;;;;;;6.07;2.85;;;;;;;7.66;29.17;101799.97;5550898;32;33612;-54
2022/03/01 11:07:54;;;;;;;5.40;2.85;;;;;;;7.63;28.72;101795.06;5561371;32;33190;-55
2022/03/01 11:10:59;;;;;;;7.72;2.72;;;;;;;7.73;28.05;101797.19;5569303;32;33666;-54
2022/03/01 11:14:03;;;;;;;4.07;2.85;;;;;;;7.84;28.54;101798.28;5567946;32;33773;-54
2022/03/01 11:17:18;;;;;;;4.50;2.58;;;;;;;7.57;27.74;101784.47;5562028;32;33696;-54
2022/03/01 11:20:36;;;;;;;4.32;2.72;;;;;;;7.09;28.32;101786.09;5559487;32;33709;-54
2022/03/01 11:23:41;;;;;;;4.22;2.25;;;;;;;7.18;29.15;101762.59;5563245;32;33671;-54
2022/03/01 11:26:44;;;;;;;4.40;2.83;;;;;;;7.17;28.50;101766.31;5566976;32;32341;-54
2022/03/01 11:29:47;;;;;;;5.60;2.80;;;;;;;7.51;27.83;101762.97;5567826;32;32476;-55
2022/03/01 11:32:54;;;;;;;4.72;2.72;;;;;;;7.39;28.03;101758.66;5565512;32;33860;-54
2022/03/01 11:36:02;;;;;;;4.72;2.90;;;;;;;7.32;28.33;101744.56;5565061;32;33708;-54
2022/03/01 11:39:16;;;;;;;5.68;2.85;;;;;;;7.59;27.54;101751.19;5564035;32;33637;-56
2022/03/01 11:42:20;;;;;;;5.37;2.70;;;;;;;7.59;27.67;101734.38;5562533;32;32132;-54
2022/03/01 11:45:33;;;;;;;5.70;3.00;;;;;;;7.76;26.96;101736.16;5563108;32;33662;-54
2022/03/01 11:48:44;;;;;;;5.35;3.03;;;;;;;7.96;27.04;101727.84;5560272;32;33685;-55
2022/03/01 11:51:49;;;;;;;5.40;2.72;;;;;;;8.13;26.54;101729.84;5560303;32;33590;-54
2022/03/01 11:54:55;;;;;;;6.43;2.90;;;;;;;8.28;26.58;101726.72;5567409;32;33708;-54
2022/03/01 11:57:57;;;;;;;4.57;2.95;;;;;;;8.19;26.43;101721.72;5566433;32;33757;-55
2022/03/01 12:01:05;;;;;;;6.78;3.00;;;;;;;8.08;27.32;101717.19;5565487;32;34359;-55
2022/03/01 12:04:09;;;;;;;6.87;3.30;;;;;;;8.20;26.40;101719.88;5564058;32;33884;-55
2022/03/01 12:07:17;;;;;;;9.43;2.50;;;;;;;8.01;26.14;101708.47;5561100;32;33733;-54
2022/03/01 12:10:22;;;;;;;6.30;2.90;;;;;;;8.13;26.25;101705.81;5561672;32;33730;-54
2022/03/01 12:13:37;;;;;;;4.05;2.45;;;;;;;8.14;25.60;101702.91;5559153;32;33305;-54
2022/03/01 12:16:40;;;;;;;5.15;3.20;;;;;;;8.31;25.00;101703.03;5557086;32;32184;-55
2022/03/01 12:19:43;;;;;;;4.28;2.53;;;;;;;8.58;25.37;101699.94;5560624;32;34327;-54
2022/03/01 12:23:00;;;;;;;5.70;2.90;;;;;;;8.63;25.44;101698.16;5563703;32;35405;-54
2022/03/01 12:26:04;;;;;;;6.68;3.20;;;;;;;8.75;25.17;101692.81;5558328;32;34404;-55
2022/03/01 12:29:10;;;;;;;4.50;2.78;;;;;;;8.79;24.11;101690.47;5557495;31;32730;-55
2022/03/01 12:32:13;;;;;;;5.45;2.85;;;;;;;8.76;24.91;101674.91;5563180;31;34457;-55
2022/03/01 12:35:15;;;;;;;8.80;3.65;;;;;;;8.75;24.01;101676.75;5563202;32;33706;-54
2022/03/01 12:38:17;;;;;;;5.32;2.75;;;;;;;8.34;24.21;101672.34;5562204;32;33778;-54
2022/03/01 12:41:22;;;;;;;6.03;3.17;;;;;;;8.21;24.94;101671.56;5555945;32;33731;-54
2022/03/01 12:44:31;;;;;;;5.28;3.15;;;;;;;8.46;24.29;101663.31;5558563;32;33435;-54
2022/03/01 12:47:33;;;;;;;3.85;2.65;;;;;;;8.52;24.21;101658.91;5559215;32;33649;-55
2022/03/01 12:50:44;;;;;;;4.90;2.87;;;;;;;8.83;24.78;101654.97;5553479;32;33759;-55
2022/03/01 12:53:54;;;;;;;5.53;2.85;;;;;;;8.82;23.75;101656.03;5566816;32;33632;-55
2022/03/01 12:56:59;;;;;;;5.43;2.80;;;;;;;9.06;24.58;101650.63;5563784;32;33648;-56
2022/03/01 13:00:11;;;;;;;9.68;3.00;;;;;;;8.89;23.87;101651.38;5564663;32;33814;-55
2022/03/01 13:03:24;;;;;;;6.65;2.95;;;;;;;8.84;23.40;101640.59;5553575;32;33638;-55
2022/03/01 13:06:27;;;;;;;5.78;3.40;;;;;;;8.73;23.93;101637.94;5563031;32;33691;-54
2022/03/01 13:09:29;;;;;;;5.18;2.67;;;;;;;8.65;23.88;101633.78;5566737;32;33657;-54
2022/03/01 13:12:33;;;;;;;5.70;3.00;;;;;;;8.71;24.05;101640.84;5567824;32;33995;-54
2022/03/01 13:15:39;;;;;;;5.00;3.10;;;;;;;8.76;23.93;101624.91;5568120;32;34260;-54
2022/03/01 13:18:42;;;;;;;5.82;3.25;;;;;;;8.90;23.85;101625.44;5569657;32;33974;-54
2022/03/01 13:21:52;;;;;;;4.93;2.65;;;;;;;9.06;23.11;101618.50;5551689;32;34358;-54
2022/03/01 13:24:54;;;;;;;4.65;2.60;;;;;;;9.04;22.55;101620.59;5555418;32;33774;-55
2022/03/01 13:31:26;;;;;;;4.15;2.80;;;;;;;9.16;22.07;101608.81;5565309;32;34345;-54
2022/03/01 13:34:29;;;;;;;4.90;2.80;;;;;;;8.99;21.95;101601.81;5565467;32;33239;-54
2022/03/01 13:37:32;;;;;;;5.12;3.15;;;;;;;9.08;22.28;101605.72;5569861;32;33712;-54
2022/03/01 13:40:44;;;;;;;5.43;3.37;;;;;;;8.99;22.15;101596.47;5570098;32;34455;-55
2022/03/01 13:43:48;;;;;;;3.90;2.70;;;;;;;9.08;21.93;101593.16;5570313;32;33911;-55
2022/03/01 13:46:54;;;;;;;7.57;2.90;;;;;;;9.23;22.11;101584.56;5570469;32;33845;-54
2022/03/01 13:50:01;;;;;;;;;;;;;;;9.11;22.06;101581.97;5570559;32;33188;-54
2022/03/01 13:53:17;;;;;;;4.18;2.83;;;;;;;9.36;21.80;101580.78;5570588;32;34052;-54
2022/03/01 13:56:21;;;;;;;;;;;;;;;9.32;21.55;101567.06;5557818;32;33660;-55
2022/03/01 13:59:23;;;;;;;5.12;3.08;;;;;;;9.01;21.82;101570.28;5550928;32;34653;-55
2022/03/01 14:02:26;;;;;;;6.97;2.78;;;;;;;9.29;21.92;101570.22;5550776;32;34441;-54
2022/03/01 14:05:29;;;;;;;4.25;2.60;;;;;;;9.46;20.84;101561.41;5550912;32;33674;-54
2022/03/01 14:08:33;;;;;;;4.82;2.78;;;;;;;9.19;20.91;101556.69;5566162;32;34269;-54
2022/03/01 14:11:35;;;;;;;6.65;2.90;;;;;;;9.19;21.38;101559.34;5570240;32;33663;-54
2022/03/01 14:14:45;;;;;;;5.85;3.35;;;;;;;9.21;21.92;101543.88;5569442;32;33636;-54
2022/03/01 14:17:55;;;;;;;5.12;2.95;;;;;;;9.24;21.68;101547.91;5569838;32;33728;-54
2022/03/01 14:20:57;;;;;;;6.43;2.87;;;;;;;9.06;21.66;101546.28;5569061;32;33471;-54
2022/03/01 14:24:00;;;;;;;7.75;3.00;;;;;;;8.91;21.70;101547.66;5569892;32;33684;-54
2022/03/01 14:27:02;;;;;;;4.12;2.72;;;;;;;9.04;21.55;101541.19;5568386;32;34106;-54
2022/03/01 14:30:05;;;;;;;4.97;2.80;;;;;;;8.99;20.48;101538.41;5566470;32;34436;-54
2022/03/01 14:33:09;;;;;;;4.85;2.67;;;;;;;8.98;20.88;101536.00;5549990;32;34235;-54
2022/03/01 14:36:11;;;;;;;5.07;2.60;;;;;;;9.04;21.10;101545.72;5561522;32;33719;-55
2022/03/01 14:39:13;;;;;;;4.25;2.80;;;;;;;9.09;21.04;101543.13;5565664;32;33494;-54
2022/03/01 14:42:16;;;;;;;5.37;3.40;;;;;;;9.01;20.96;101535.53;5550442;32;34319;-54
2022/03/01 14:45:18;;;;;;;7.03;2.58;;;;;;;9.10;20.51;101526.03;5562488;32;33643;-55
2022/03/01 14:48:20;;;;;;;4.75;2.50;;;;;;;9.20;21.30;101522.72;5569079;32;33776;-54
2022/03/01 14:51:23;;;;;;;5.25;2.90;;;;;;;9.39;20.83;101524.09;5568049;32;33657;-55
2022/03/01 14:54:26;;;;;;;5.87;2.70;;;;;;;9.49;20.31;101521.56;5569077;32;34585;-54
2022/03/01 14:57:28;;;;;;;3.42;2.17;;;;;;;9.49;20.02;101521.56;5569187;32;34326;-54
2022/03/01 15:00:31;;;;;;;4.68;2.08;;;;;;;9.48;19.34;101516.47;5569421;32;34610;-54
2022/03/01 15:03:33;;;;;;;4.00;2.20;;;;;;;9.29;19.85;101518.59;5569424;32;34190;-54
2022/03/01 15:06:37;;;;;;;5.60;2.33;;;;;;;9.29;19.55;101511.37;5567010;32;34463;-54
2022/03/01 15:09:40;;;;;;;6.87;2.50;;;;;;;9.29;20.10;101519.38;5566733;32;33676;-54
2022/03/01 15:12:42;;;;;;;6.00;2.62;;;;;;;9.48;19.67;101503.09;5568868;32;33779;-54
2022/03/01 15:15:45;;;;;;;7.05;2.70;;;;;;;9.62;19.14;101502.50;5568746;32;34735;-54
2022/03/01 15:18:48;;;;;;;5.22;2.42;;;;;;;9.60;19.32;101503.78;5558609;32;34474;-54
2022/03/01 15:21:50;;;;;;;7.03;2.80;;;;;;;9.55;19.50;101503.72;5565626;32;33390;-54
2022/03/01 15:24:52;;;;;;;3.47;2.17;;;;;;;9.72;19.48;101501.03;5555764;32;34591;-56
2022/03/01 15:27:55;;;;;;;4.35;2.55;;;;;;;9.86;19.51;101503.06;5555534;32;34360;-55
2022/03/01 15:30:57;;;;;;;4.57;2.17;;;;;;;9.94;19.71;101493.81;5563679;32;34470;-54
2022/03/01 15:33:59;;;;;;;4.82;2.42;;;;;;;9.77;19.42;101498.44;5565784;32;33959;-55
2022/03/01 15:37:02;;;;;;;3.83;2.30;;;;;;;9.93;18.96;101497.53;5568589;32;33724;-55
2022/03/01 15:40:06;;;;;;;5.00;2.60;;;;;;;9.80;19.53;101485.34;5567544;32;34010;-55
2022/03/01 15:43:09;;;;;;;3.80;2.20;;;;;;;9.95;19.18;101489.28;5568471;32;34389;-55
2022/03/01 15:46:11;;;;;;;4.10;2.40;;;;;;;9.74;19.93;101490.87;5567465;32;34364;-54
2022/03/01 15:49:18;;;;;;;5.65;2.75;;;;;;;9.82;18.96;101493.94;5569384;32;33720;-54
2022/03/01 15:52:22;;;;;;;4.55;2.42;;;;;;;9.54;18.97;101488.72;5566979;32;33730;-55
2022/03/01 15:55:25;;;;;;;4.65;2.85;;;;;;;9.60;19.29;101485.88;5569228;32;33830;-54
2022/03/01 15:58:28;;;;;;;5.72;2.50;;;;;;;9.53;19.15;101482.53;5568777;32;34222;-54
2022/03/01 16:01:33;;;;;;;4.47;2.62;;;;;;;9.41;19.74;101479.97;5569227;32;33763;-54
2022/03/01 16:04:35;;;;;;;6.03;2.67;;;;;;;9.47;20.89;101480.87;5558352;32;33546;-54
2022/03/01 16:07:38;;;;;;;9.02;2.33;;;;;;;9.47;21.23;101483.56;5549851;32;34291;-54
2022/03/01 16:10:40;;;;;;;3.53;2.50;;;;;;;9.48;19.76;101479.81;5549607;32;33791;-54
2022/03/01 16:13:42;;;;;;;6.28;2.67;;;;;;;9.55;19.75;101477.75;5549655;32;33708;-54
2022/03/01 16:16:45;;;;;;;3.80;2.60;;;;;;;9.54;19.59;101478.81;5549650;32;33718;-54
2022/03/01 16:19:47;;;;;;;7.45;2.90;;;;;;;9.43;20.69;101481.59;5549509;32;33748;-54
2022/03/01 16:22:50;;;;;;;10.77;3.55;;;;;;;9.37;19.83;101486.88;5549651;32;33653;-54
2022/03/01 16:25:53;;;;;;;4.82;2.60;;;;;;;9.36;20.89;101479.88;5549614;32;33766;-54
2022/03/01 16:28:55;;;;;;;4.45;2.30;;;;;;;9.47;20.03;101477.37;5549490;32;34391;-54
2022/03/01 16:31:58;;;;;;;5.70;2.95;;;;;;;9.49;20.02;101481.41;5549304;32;33731;-54
2022/03/01 16:35:00;;;;;;;5.05;2.62;;;;;;;9.40;19.85;101486.41;5549419;32;34433;-54
2022/03/01 16:38:02;;;;;;;5.32;2.78;;;;;;;9.43;20.08;101479.72;5549192;32;33395;-55
2022/03/01 16:41:05;;;;;;;4.22;2.80;;;;;;;9.53;19.99;101474.50;5549283;32;34388;-55
2022/03/01 16:44:08;;;;;;;6.57;2.87;;;;;;;9.37;21.68;101481.53;5549094;32;33773;-55
2022/03/01 16:47:11;;;;;;;4.82;2.65;;;;;;;9.32;23.25;101486.00;5549378;32;34393;-55
